createdAt,value
2023-02-19T00:00:00.155Z,101300.60
2023-02-19T00:02:28.501Z,101300.80
2023-02-19T00:04:56.500Z,101303.20
2023-02-19T00:07:24.316Z,101302.60
2023-02-19T00:09:52.160Z,101300.20
2023-02-19T00:12:20.021Z,101303.40
2023-02-19T00:14:47.891Z,101305.60
2023-02-19T00:17:15.742Z,101307.40
2023-02-19T00:19:43.512Z,101307.80
2023-02-19T00:22:12.311Z,101308.20
2023-02-19T00:24:40.303Z,101311.20
2023-02-19T00:27:08.298Z,101320.80
2023-02-19T00:29:36.255Z,101328.00
2023-02-19T00:32:04.672Z,101321.80
2023-02-19T00:34:32.541Z,101322.40
2023-02-19T00:37:00.451Z,101328.80
2023-02-19T00:39:28.506Z,101331.40
2023-02-19T00:41:56.467Z,101334.60
2023-02-19T00:44:24.279Z,101333.00
2023-02-19T00:46:52.155Z,101340.40
2023-02-19T00:49:23.222Z,101344.20
2023-02-19T00:51:53.234Z,101345.20
2023-02-19T00:54:23.071Z,101346.20
2023-02-19T00:56:51.778Z,101349.60
2023-02-19T00:59:19.795Z,101359.60
2023-02-19T01:01:47.719Z,101359.00
2023-02-19T01:04:16.492Z,101358.80
2023-02-19T01:06:44.399Z,101353.40
2023-02-19T01:09:12.308Z,101360.40
2023-02-19T01:11:40.528Z,101366.40
2023-02-19T01:14:10.657Z,101366.60
2023-02-19T01:16:38.579Z,101375.00
2023-02-19T01:19:06.421Z,101382.80
2023-02-19T01:21:34.317Z,101380.60
2023-02-19T01:24:02.381Z,101377.40
2023-02-19T01:26:32.966Z,101375.80
2023-02-19T01:29:02.301Z,101377.00
2023-02-19T01:31:31.055Z,101382.80
2023-02-19T01:34:02.563Z,101380.60
2023-02-19T01:36:34.275Z,101381.00
2023-02-19T01:39:05.625Z,101381.60
2023-02-19T01:41:38.951Z,101389.80
2023-02-19T01:44:17.886Z,101386.40
2023-02-19T01:46:48.504Z,101386.80
2023-02-19T01:49:48.927Z,101387.20
2023-02-19T01:52:34.206Z,101386.80
2023-02-19T01:55:07.483Z,101390.40
2023-02-19T01:57:43.913Z,101392.80
2023-02-19T02:00:15.826Z,101392.00
2023-02-19T02:02:51.106Z,101393.40
2023-02-19T02:06:02.412Z,101391.60
2023-02-19T02:08:51.799Z,101384.80
2023-02-19T02:11:22.060Z,101390.60
2023-02-19T02:13:51.556Z,101395.80
2023-02-19T02:16:57.436Z,101396.40
2023-02-19T02:19:46.491Z,101401.80
2023-02-19T02:22:29.467Z,101408.20
2023-02-19T02:25:17.368Z,101414.60
2023-02-19T02:28:06.690Z,101414.80
2023-02-19T02:30:45.010Z,101416.00
2023-02-19T02:33:43.492Z,101418.80
2023-02-19T02:36:31.048Z,101420.20
2023-02-19T02:39:03.474Z,101426.60
2023-02-19T02:41:33.592Z,101429.00
2023-02-19T02:44:02.014Z,101429.40
2023-02-19T02:46:38.739Z,101429.80
2023-02-19T02:49:16.152Z,101430.80
2023-02-19T02:51:52.774Z,101434.60
2023-02-19T02:54:50.190Z,101441.40
2023-02-19T02:57:20.101Z,101443.60
2023-02-19T02:59:52.120Z,101439.60
2023-02-19T03:02:30.644Z,101439.60
2023-02-19T03:05:40.487Z,101441.80
2023-02-19T03:08:19.889Z,101443.40
2023-02-19T03:11:20.190Z,101442.60
2023-02-19T03:14:09.585Z,101446.80
2023-02-19T03:17:00.247Z,101437.60
2023-02-19T03:19:33.285Z,101444.40
2023-02-19T03:22:19.954Z,101451.60
2023-02-19T03:25:23.850Z,101461.60
2023-02-19T03:27:54.320Z,101454.00
2023-02-19T03:30:29.488Z,101451.00
2023-02-19T03:33:08.289Z,101449.60
2023-02-19T03:35:49.910Z,101456.40
2023-02-19T03:38:30.023Z,101465.20
2023-02-19T03:41:23.400Z,101464.80
2023-02-19T03:44:09.825Z,101476.00
2023-02-19T03:46:58.292Z,101476.00
2023-02-19T03:49:42.155Z,101485.20
2023-02-19T03:52:56.343Z,101476.20
2023-02-19T03:55:49.102Z,101485.00
2023-02-19T03:59:05.564Z,101493.40
2023-02-19T04:02:16.984Z,101499.40
2023-02-19T04:05:02.812Z,101499.20
2023-02-19T04:07:38.865Z,101497.40
2023-02-19T04:10:09.236Z,101504.40
2023-02-19T04:12:45.812Z,101500.40
2023-02-19T04:15:21.856Z,101491.40
2023-02-19T04:18:18.775Z,101493.40
2023-02-19T04:20:48.542Z,101497.20
2023-02-19T04:23:22.624Z,101506.60
2023-02-19T04:25:56.805Z,101522.80
2023-02-19T04:28:24.696Z,101519.20
2023-02-19T04:30:52.750Z,101522.60
2023-02-19T04:33:20.564Z,101529.00
2023-02-19T04:35:48.398Z,101531.40
2023-02-19T04:38:16.304Z,101534.20
2023-02-19T04:40:44.140Z,101547.00
2023-02-19T04:43:11.927Z,101554.20
2023-02-19T04:45:39.785Z,101560.20
2023-02-19T04:48:07.644Z,101558.80
2023-02-19T04:50:39.528Z,101551.40
2023-02-19T04:53:08.124Z,101552.00
2023-02-19T04:55:39.541Z,101554.60
2023-02-19T04:58:07.449Z,101559.20
2023-02-19T05:00:35.297Z,101554.20
2023-02-19T05:03:03.148Z,101560.80
2023-02-19T05:05:31.134Z,101555.20
2023-02-19T05:07:58.925Z,101563.80
2023-02-19T05:10:26.812Z,101567.60
2023-02-19T05:12:57.859Z,101578.20
2023-02-19T05:15:25.955Z,101580.00
2023-02-19T05:17:53.760Z,101577.60
2023-02-19T05:20:23.037Z,101580.60
2023-02-19T05:22:50.955Z,101588.00
2023-02-19T05:25:18.727Z,101599.60
2023-02-19T05:27:46.570Z,101609.60
2023-02-19T05:30:14.635Z,101598.80
2023-02-19T05:32:42.414Z,101601.60
2023-02-19T05:35:10.532Z,101607.20
2023-02-19T05:37:38.363Z,101599.80
2023-02-19T05:40:06.434Z,101603.80
2023-02-19T05:42:34.317Z,101603.00
2023-02-19T05:45:02.255Z,101602.20
2023-02-19T05:47:30.075Z,101604.20
2023-02-19T05:49:57.880Z,101605.00
2023-02-19T05:52:25.674Z,101600.20
2023-02-19T05:54:53.596Z,101599.20
2023-02-19T05:57:21.562Z,101593.80
2023-02-19T05:59:49.414Z,101599.40
2023-02-19T06:02:17.211Z,101612.20
2023-02-19T06:04:44.979Z,101606.60
2023-02-19T06:07:12.883Z,101611.20
2023-02-19T06:09:40.680Z,101618.20
2023-02-19T06:12:08.464Z,101633.40
2023-02-19T06:14:36.222Z,101634.40
2023-02-19T06:17:04.013Z,101626.40
2023-02-19T06:19:31.900Z,101630.60
2023-02-19T06:21:59.757Z,101633.40
2023-02-19T06:24:27.670Z,101636.80
2023-02-19T06:26:55.481Z,101639.80
2023-02-19T06:29:23.328Z,101639.80
2023-02-19T06:31:51.453Z,101643.20
2023-02-19T06:34:19.364Z,101649.60
2023-02-19T06:36:49.603Z,101647.80
2023-02-19T06:39:17.552Z,101647.80
2023-02-19T06:41:45.345Z,101655.80
2023-02-19T06:44:13.288Z,101655.60
2023-02-19T06:46:41.452Z,101667.00
2023-02-19T06:49:09.427Z,101668.80
2023-02-19T06:51:37.262Z,101667.40
2023-02-19T06:54:05.134Z,101664.80
2023-02-19T06:56:41.918Z,101664.60
2023-02-19T06:59:18.848Z,101670.00
2023-02-19T07:01:46.825Z,101672.20
2023-02-19T07:04:14.864Z,101667.20
2023-02-19T07:06:42.922Z,101660.80
2023-02-19T07:09:11.942Z,101673.20
2023-02-19T07:11:40.308Z,101688.60
2023-02-19T07:14:15.684Z,101689.80
2023-02-19T07:16:44.637Z,101695.60
2023-02-19T07:19:12.868Z,101705.20
2023-02-19T07:21:42.335Z,101708.20
2023-02-19T07:24:10.526Z,101703.00
2023-02-19T07:26:38.592Z,101706.00
2023-02-19T07:29:07.549Z,101713.40
2023-02-19T07:31:35.475Z,101734.00
2023-02-19T07:34:03.438Z,101737.80
2023-02-19T07:36:31.295Z,101733.60
2023-02-19T07:39:00.193Z,101728.60
2023-02-19T07:41:28.437Z,101731.60
2023-02-19T07:43:58.640Z,101737.20
2023-02-19T07:46:26.843Z,101740.80
2023-02-19T07:48:54.702Z,101757.20
2023-02-19T07:51:23.147Z,101757.80
2023-02-19T07:53:51.701Z,101752.80
2023-02-19T07:56:20.840Z,101755.80
2023-02-19T07:58:49.649Z,101766.20
2023-02-19T08:01:42.294Z,101767.20
2023-02-19T08:04:13.525Z,101759.60
2023-02-19T08:06:42.777Z,101765.60
2023-02-19T08:09:11.384Z,101770.20
2023-02-19T08:11:57.977Z,101775.00
2023-02-19T08:14:29.349Z,101782.00
2023-02-19T08:16:57.503Z,101805.60
2023-02-19T08:19:25.412Z,101820.40
2023-02-19T08:21:53.680Z,101835.80
2023-02-19T08:24:21.592Z,101855.80
2023-02-19T08:26:49.661Z,101853.80
2023-02-19T08:29:17.557Z,101838.60
2023-02-19T08:31:45.625Z,101834.40
2023-02-19T08:34:13.536Z,101825.80
2023-02-19T08:36:41.393Z,101829.80
2023-02-19T08:39:09.358Z,101843.20
2023-02-19T08:41:37.326Z,101838.00
2023-02-19T08:44:05.304Z,101832.40
2023-02-19T08:46:34.406Z,101836.40
2023-02-19T08:49:02.501Z,101827.00
2023-02-19T08:51:30.444Z,101830.20
2023-02-19T08:53:58.327Z,101839.40
2023-02-19T08:56:26.200Z,101839.80
2023-02-19T08:58:54.147Z,101839.60
2023-02-19T09:01:22.038Z,101842.00
2023-02-19T09:03:49.946Z,101833.00
2023-02-19T09:06:20.699Z,101823.20
2023-02-19T09:08:48.718Z,101831.20
2023-02-19T09:11:17.106Z,101835.60
2023-02-19T09:13:45.145Z,101834.00
2023-02-19T09:16:13.226Z,101820.80
2023-02-19T09:18:41.182Z,101809.40
2023-02-19T09:21:09.350Z,101819.60
2023-02-19T09:23:37.997Z,101833.20
2023-02-19T09:26:09.328Z,101842.00
2023-02-19T09:28:39.677Z,101846.60
2023-02-19T09:31:11.660Z,101853.80
2023-02-19T09:33:44.665Z,101853.80
2023-02-19T09:36:14.634Z,101847.00
2023-02-19T09:38:43.276Z,101848.00
2023-02-19T09:41:28.828Z,101862.20
2023-02-19T09:44:03.408Z,101889.60
2023-02-19T09:46:52.441Z,101894.80
2023-02-19T09:49:36.696Z,101909.20
2023-02-19T09:52:22.201Z,101906.20
2023-02-19T09:54:51.617Z,101908.20
2023-02-19T09:57:21.687Z,101902.00
2023-02-19T10:00:00.307Z,101903.40
2023-02-19T10:02:30.235Z,101891.20
2023-02-19T10:04:59.053Z,101885.00
2023-02-19T10:07:44.511Z,101871.00
2023-02-19T10:10:15.291Z,101871.40
2023-02-19T10:12:50.570Z,101874.20
2023-02-19T10:15:33.790Z,101893.40
2023-02-19T10:18:04.292Z,101894.60
2023-02-19T10:20:32.412Z,101894.40
2023-02-19T10:23:06.256Z,101896.40
2023-02-19T10:25:36.431Z,101894.60
2023-02-19T10:28:07.098Z,101894.00
2023-02-19T10:30:36.134Z,101892.80
2023-02-19T10:33:16.483Z,101899.00
2023-02-19T10:36:07.942Z,101905.00
2023-02-19T10:38:40.282Z,101912.20
2023-02-19T10:41:17.795Z,101918.00
2023-02-19T10:44:14.335Z,101915.00
2023-02-19T10:46:47.122Z,101908.20
2023-02-19T10:49:23.000Z,101911.20
2023-02-19T10:51:55.015Z,101913.60
2023-02-19T10:54:32.554Z,101917.20
2023-02-19T10:57:15.685Z,101912.80
2023-02-19T10:59:58.177Z,101919.80
2023-02-19T11:02:28.408Z,101913.00
2023-02-19T11:05:12.098Z,101931.40
2023-02-19T11:07:50.409Z,101925.40
2023-02-19T11:10:28.689Z,101923.40
2023-02-19T11:13:01.611Z,101929.00
2023-02-19T11:15:35.519Z,101929.60
2023-02-19T11:18:31.979Z,101941.40
2023-02-19T11:21:03.695Z,101940.20
2023-02-19T11:23:45.692Z,101946.00
2023-02-19T11:26:24.146Z,101956.20
2023-02-19T11:28:58.730Z,101954.40
2023-02-19T11:31:36.050Z,101945.60
2023-02-19T11:34:24.623Z,101936.00
2023-02-19T11:37:31.027Z,101940.40
2023-02-19T11:39:58.956Z,101930.40
2023-02-19T11:42:48.390Z,101938.80
2023-02-19T11:45:38.826Z,101929.80
2023-02-19T11:48:37.694Z,101924.60
2023-02-19T11:51:30.380Z,101919.80
2023-02-19T11:54:40.021Z,101921.00
2023-02-19T11:57:29.056Z,101923.60
2023-02-19T12:00:18.460Z,101924.20
2023-02-19T12:03:01.190Z,101919.40
2023-02-19T12:05:48.214Z,101913.60
2023-02-19T12:08:28.047Z,101912.00
2023-02-19T12:11:30.294Z,101901.00
2023-02-19T12:14:32.651Z,101900.80
2023-02-19T12:17:34.046Z,101889.40
2023-02-19T12:20:23.930Z,101880.80
2023-02-19T12:23:13.024Z,101878.40
2023-02-19T12:26:08.927Z,101878.40
2023-02-19T12:28:49.019Z,101875.60
2023-02-19T12:32:34.511Z,101879.00
2023-02-19T12:35:32.382Z,101878.20
2023-02-19T12:38:47.717Z,101877.80
2023-02-19T12:41:24.678Z,101882.00
2023-02-19T12:44:09.016Z,101876.40
2023-02-19T12:46:43.145Z,101869.80
2023-02-19T12:49:21.761Z,101866.00
2023-02-19T12:51:57.507Z,101856.60
2023-02-19T12:54:30.576Z,101856.40
2023-02-19T12:57:13.478Z,101853.00
2023-02-19T13:00:25.008Z,101855.00
2023-02-19T13:03:20.920Z,101857.40
2023-02-19T13:06:18.747Z,101841.80
2023-02-19T13:09:23.793Z,101848.60
2023-02-19T13:12:01.945Z,101837.00
2023-02-19T13:14:40.369Z,101833.60
2023-02-19T13:17:20.333Z,101830.00
2023-02-19T13:19:55.605Z,101835.80
2023-02-19T13:23:01.253Z,101839.20
2023-02-19T13:26:23.585Z,101829.00
2023-02-19T13:30:04.548Z,101832.40
2023-02-19T13:32:52.552Z,101833.40
2023-02-19T13:35:35.497Z,101829.20
2023-02-19T13:40:42.498Z,101828.80
2023-02-19T13:43:42.868Z,101838.20
2023-02-19T13:46:16.433Z,101844.80
2023-02-19T13:48:44.599Z,101844.40
2023-02-19T13:51:24.686Z,101840.80
2023-02-19T13:54:13.873Z,101830.00
2023-02-19T13:56:42.215Z,101818.80
2023-02-19T13:59:22.108Z,101822.20
2023-02-19T14:01:52.804Z,101822.40
2023-02-19T14:04:43.079Z,101831.00
2023-02-19T14:07:10.928Z,101824.80
2023-02-19T14:09:43.750Z,101819.60
2023-02-19T14:12:15.850Z,101818.20
2023-02-19T14:14:55.740Z,101813.40
2023-02-19T14:17:35.730Z,101805.00
2023-02-19T14:20:09.739Z,101808.00
2023-02-19T14:22:53.108Z,101808.80
2023-02-19T14:25:58.303Z,101806.60
2023-02-19T14:28:36.329Z,101805.40
2023-02-19T14:31:22.464Z,101811.80
2023-02-19T14:33:55.207Z,101816.40
2023-02-19T14:36:56.704Z,101812.60
2023-02-19T14:39:26.767Z,101817.00
2023-02-19T14:42:01.700Z,101817.60
2023-02-19T14:44:43.983Z,101816.80
2023-02-19T14:47:18.894Z,101813.40
2023-02-19T14:50:07.415Z,101807.20
2023-02-19T14:52:48.303Z,101814.80
2023-02-19T14:55:35.025Z,101817.80
2023-02-19T14:58:21.260Z,101810.40
2023-02-19T15:00:49.210Z,101804.60
2023-02-19T15:03:34.883Z,101800.60
2023-02-19T15:06:14.181Z,101796.40
2023-02-19T15:08:48.525Z,101792.40
2023-02-19T15:11:28.646Z,101788.60
2023-02-19T15:14:02.759Z,101784.20
2023-02-19T15:16:34.299Z,101780.20
2023-02-19T15:19:08.230Z,101780.00
2023-02-19T15:21:48.010Z,101777.80
2023-02-19T15:24:18.916Z,101778.60
2023-02-19T15:26:55.562Z,101772.20
2023-02-19T15:29:27.223Z,101771.00
2023-02-19T15:31:59.745Z,101776.80
2023-02-19T15:34:32.140Z,101770.60
2023-02-19T15:37:09.169Z,101761.20
2023-02-19T15:39:44.712Z,101748.20
2023-02-19T15:42:25.053Z,101743.40
2023-02-19T15:45:03.288Z,101740.60
2023-02-19T15:48:03.184Z,101738.00
2023-02-19T15:50:36.009Z,101734.60
2023-02-19T15:53:23.265Z,101734.60
2023-02-19T15:56:11.654Z,101732.40
2023-02-19T15:58:50.652Z,101737.20
2023-02-19T16:01:25.700Z,101729.80
2023-02-19T16:03:55.416Z,101726.40
2023-02-19T16:06:29.063Z,101722.80
2023-02-19T16:09:06.051Z,101714.00
2023-02-19T16:11:53.458Z,101718.60
2023-02-19T16:14:32.707Z,101711.20
2023-02-19T16:17:15.580Z,101707.00
2023-02-19T16:19:43.689Z,101709.20
2023-02-19T16:22:17.000Z,101708.00
2023-02-19T16:24:52.877Z,101704.60
2023-02-19T16:27:40.518Z,101705.60
2023-02-19T16:30:15.180Z,101704.80
2023-02-19T16:32:45.463Z,101700.80
2023-02-19T16:35:42.691Z,101695.00
2023-02-19T16:38:19.985Z,101699.80
2023-02-19T16:40:50.999Z,101704.40
2023-02-19T16:43:30.691Z,101698.60
2023-02-19T16:46:00.658Z,101698.40
2023-02-19T16:48:28.820Z,101703.20
2023-02-19T16:50:56.924Z,101705.20
2023-02-19T16:53:25.471Z,101713.40
2023-02-19T16:55:53.336Z,101709.20
2023-02-19T16:58:21.480Z,101715.60
2023-02-19T17:00:49.432Z,101724.00
2023-02-19T17:03:25.068Z,101725.00
2023-02-19T17:05:53.365Z,101716.20
2023-02-19T17:08:28.178Z,101718.80
2023-02-19T17:10:56.316Z,101726.00
2023-02-19T17:13:24.227Z,101740.40
2023-02-19T17:15:52.313Z,101745.40
2023-02-19T17:18:20.291Z,101750.00
2023-02-19T17:21:12.518Z,101745.20
2023-02-19T17:23:40.489Z,101741.40
2023-02-19T17:26:19.343Z,101738.60
2023-02-19T17:28:48.295Z,101744.80
2023-02-19T17:31:16.753Z,101740.80
2023-02-19T17:33:46.807Z,101736.00
2023-02-19T17:36:19.897Z,101736.00
2023-02-19T17:38:48.111Z,101746.80
2023-02-19T17:41:15.995Z,101746.60
2023-02-19T17:43:43.910Z,101748.20
2023-02-19T17:46:22.101Z,101745.60
2023-02-19T17:48:50.864Z,101753.40
2023-02-19T17:51:18.700Z,101756.00
2023-02-19T17:53:46.746Z,101759.40
2023-02-19T17:56:25.445Z,101761.80
2023-02-19T17:58:55.235Z,101766.40
2023-02-19T18:01:23.959Z,101768.00
2023-02-19T18:03:53.161Z,101770.20
2023-02-19T18:06:21.063Z,101768.20
2023-02-19T18:08:52.215Z,101771.40
2023-02-19T18:11:22.706Z,101776.80
2023-02-19T18:13:52.273Z,101782.00
2023-02-19T18:16:21.143Z,101768.40
2023-02-19T18:18:49.040Z,101757.00
2023-02-19T18:21:16.957Z,101751.00
2023-02-19T18:23:46.721Z,101746.00
2023-02-19T18:26:21.300Z,101751.40
2023-02-19T18:28:49.222Z,101747.40
2023-02-19T18:31:17.199Z,101746.00
2023-02-19T18:33:45.162Z,101737.60
2023-02-19T18:36:13.239Z,101735.00
2023-02-19T18:38:41.155Z,101736.60
2023-02-19T18:41:19.816Z,101729.80
2023-02-19T18:43:48.640Z,101717.60
2023-02-19T18:46:21.114Z,101707.40
2023-02-19T18:48:49.086Z,101708.40
2023-02-19T18:51:16.909Z,101713.00
2023-02-19T18:53:44.737Z,101714.20
2023-02-19T18:56:12.573Z,101719.00
2023-02-19T18:58:40.806Z,101732.00
2023-02-19T19:01:09.547Z,101740.80
2023-02-19T19:03:37.540Z,101746.20
2023-02-19T19:06:05.601Z,101751.20
2023-02-19T19:08:33.656Z,101747.80
2023-02-19T19:11:01.422Z,101750.40
2023-02-19T19:13:29.472Z,101750.20
2023-02-19T19:15:57.392Z,101747.20
2023-02-19T19:18:25.419Z,101738.00
2023-02-19T19:20:56.612Z,101745.60
2023-02-19T19:23:24.542Z,101740.20
2023-02-19T19:25:53.994Z,101739.40
2023-02-19T19:28:23.071Z,101735.40
2023-02-19T19:30:51.141Z,101742.80
2023-02-19T19:33:19.326Z,101749.60
2023-02-19T19:35:48.122Z,101752.80
2023-02-19T19:38:16.117Z,101751.80
2023-02-19T19:40:44.111Z,101748.00
2023-02-19T19:43:12.979Z,101737.40
2023-02-19T19:45:40.900Z,101744.00
2023-02-19T19:48:08.863Z,101747.00
2023-02-19T19:50:36.777Z,101745.20
2023-02-19T19:53:04.616Z,101754.00
2023-02-19T19:55:32.395Z,101758.00
2023-02-19T19:58:00.993Z,101758.40
2023-02-19T20:00:29.160Z,101753.00
2023-02-19T20:02:57.216Z,101749.80
2023-02-19T20:05:25.206Z,101747.40
2023-02-19T20:07:54.468Z,101746.80
2023-02-19T20:10:22.362Z,101754.00
2023-02-19T20:12:50.913Z,101745.60
2023-02-19T20:15:23.575Z,101742.80
2023-02-19T20:17:51.520Z,101737.20
2023-02-19T20:20:21.500Z,101746.40
2023-02-19T20:22:53.200Z,101748.20
2023-02-19T20:25:24.621Z,101748.00
2023-02-19T20:27:53.423Z,101744.60
2023-02-19T20:30:24.027Z,101747.00
2023-02-19T20:32:53.420Z,101744.00
2023-02-19T20:35:21.526Z,101737.00
2023-02-19T20:37:49.456Z,101730.20
2023-02-19T20:40:18.293Z,101727.80
2023-02-19T20:42:46.119Z,101727.60
2023-02-19T20:45:16.691Z,101733.40
2023-02-19T20:47:44.938Z,101721.20
2023-02-19T20:50:15.439Z,101723.80
2023-02-19T20:52:43.310Z,101728.20
2023-02-19T20:55:11.974Z,101729.80
2023-02-19T20:57:39.837Z,101728.40
2023-02-19T21:00:09.464Z,101725.00
2023-02-19T21:02:37.376Z,101728.40
2023-02-19T21:05:05.720Z,101723.40
2023-02-19T21:07:33.625Z,101723.60
2023-02-19T21:10:01.575Z,101723.80
2023-02-19T21:12:29.429Z,101722.00
2023-02-19T21:14:57.280Z,101726.00
2023-02-19T21:17:25.230Z,101726.00
2023-02-19T21:19:53.177Z,101728.00
2023-02-19T21:22:23.448Z,101731.00
2023-02-19T21:24:53.053Z,101730.60
2023-02-19T21:27:21.348Z,101732.80
2023-02-19T21:29:49.420Z,101732.80
2023-02-19T21:32:17.432Z,101743.80
2023-02-19T21:34:45.552Z,101738.00
2023-02-19T21:37:13.400Z,101742.00
2023-02-19T21:39:42.797Z,101742.80
2023-02-19T21:42:10.777Z,101751.40
2023-02-19T21:44:38.607Z,101739.20
2023-02-19T21:47:06.828Z,101743.20
2023-02-19T21:49:34.690Z,101752.60
2023-02-19T21:52:02.545Z,101753.00
2023-02-19T21:54:30.376Z,101765.00
2023-02-19T21:57:03.028Z,101766.20
2023-02-19T21:59:31.041Z,101770.60
2023-02-19T22:01:59.008Z,101774.80
2023-02-19T22:04:27.374Z,101780.60
2023-02-19T22:06:56.555Z,101779.20
2023-02-19T22:09:24.660Z,101785.40
2023-02-19T22:11:52.495Z,101785.20
2023-02-19T22:14:20.382Z,101788.40
2023-02-19T22:16:48.200Z,101797.80
2023-02-19T22:19:16.363Z,101792.60
2023-02-19T22:21:45.188Z,101786.40
2023-02-19T22:24:21.763Z,101790.00
2023-02-19T22:26:51.037Z,101786.00
2023-02-19T22:29:19.425Z,101783.80
2023-02-19T22:31:47.636Z,101783.00
2023-02-19T22:34:16.602Z,101775.00
2023-02-19T22:36:44.839Z,101775.20
2023-02-19T22:39:24.202Z,101770.80
2023-02-19T22:41:53.575Z,101770.60
2023-02-19T22:44:21.554Z,101764.80
2023-02-19T22:46:53.692Z,101771.80
2023-02-19T22:49:23.797Z,101772.80
2023-02-19T22:52:01.441Z,101776.00
2023-02-19T22:54:29.744Z,101776.40
2023-02-19T22:56:57.637Z,101781.80
2023-02-19T22:59:25.536Z,101783.60
2023-02-19T23:01:54.556Z,101779.00
2023-02-19T23:04:25.063Z,101783.20
2023-02-19T23:06:53.138Z,101777.40
2023-02-19T23:09:28.555Z,101773.40
2023-02-19T23:12:10.289Z,101771.40
2023-02-19T23:14:38.336Z,101769.80
2023-02-19T23:17:06.560Z,101767.60
2023-02-19T23:19:34.745Z,101762.00
2023-02-19T23:22:03.174Z,101764.00
2023-02-19T23:24:31.440Z,101754.60
2023-02-19T23:27:00.626Z,101749.80
2023-02-19T23:29:30.776Z,101751.20
2023-02-19T23:32:00.274Z,101747.60
2023-02-19T23:34:28.374Z,101746.60
2023-02-19T23:36:59.401Z,101748.40
2023-02-19T23:39:27.198Z,101741.20
2023-02-19T23:41:57.526Z,101741.40
2023-02-19T23:44:26.025Z,101743.20
2023-02-19T23:46:56.336Z,101735.80
2023-02-19T23:49:24.253Z,101735.00
2023-02-19T23:51:52.328Z,101731.80
2023-02-19T23:54:20.270Z,101732.80
2023-02-19T23:56:48.048Z,101726.00
2023-02-19T23:59:15.864Z,101724.00
